Time;durP1;ratioP1;P1;durP2;ratioP2;P2;SDS_P1;SDS_P2;PMS_P1;PMS_P2;Temp;Humidity;BMP_temperature;BMP_pressure;BME280_temperature;BME280_humidity;BME280_pressure;Samples;Min_cycle;Max_cycle;Signal;HPM_P1;HPM_P2
2022/08/27 00:00:12;;;;;;;5.25;2.33;;;;;;;;;;4981100;28;20033;-83
2022/08/27 00:02:37;;;;;;;5.82;2.10;;;;;;;;;;4966105;28;20046;-83
2022/08/27 00:05:03;;;;;;;5.22;2.17;;;;;;;;;;4980828;28;20024;-83
2022/08/27 00:07:29;;;;;;;6.60;2.67;;;;;;;;;;4964204;28;20041;-83
2022/08/27 00:09:54;;;;;;;9.25;2.20;;;;;;;;;;4985344;28;21006;-83
2022/08/27 00:12:20;;;;;;;3.78;2.40;;;;;;;;;;4981048;28;20117;-84
2022/08/27 00:14:46;;;;;;;5.72;2.00;;;;;;;;;;4983656;28;20075;-84
2022/08/27 00:17:12;;;;;;;5.22;2.38;;;;;;;;;;4983924;28;20255;-83
2022/08/27 00:19:37;;;;;;;7.28;2.45;;;;;;;;;;4980648;28;21698;-84
2022/08/27 00:22:04;;;;;;;6.80;2.28;;;;;;;;;;4994356;28;20034;-84
2022/08/27 00:24:29;;;;;;;5.80;2.60;;;;;;;;;;4989790;28;20053;-83
2022/08/27 00:26:55;;;;;;;5.95;2.70;;;;;;;;;;4988454;28;20046;-82
2022/08/27 00:29:20;;;;;;;7.72;2.42;;;;;;;;;;4989087;28;20047;-84
2022/08/27 00:31:45;;;;;;;8.23;2.65;;;;;;;;;;4986017;28;20056;-84
2022/08/27 00:34:11;;;;;;;5.43;2.25;;;;;;;;;;4981484;28;20054;-84
2022/08/27 00:36:36;;;;;;;5.43;2.30;;;;;;;;;;4995928;28;20034;-84
2022/08/27 00:39:02;;;;;;;7.03;3.00;;;;;;;;;;4980530;28;20453;-83
2022/08/27 00:41:27;;;;;;;6.88;2.60;;;;;;;;;;4992187;28;20424;-84
2022/08/27 00:43:59;;;;;;;8.48;2.60;;;;;;;;;;4963436;28;20035;-84
2022/08/27 00:46:30;;;;;;;8.38;2.55;;;;;;;;;;4979620;28;20034;-84
2022/08/27 00:49:01;;;;;;;9.38;3.00;;;;;;;;;;4978050;28;20073;-84
2022/08/27 00:51:29;;;;;;;5.05;2.40;;;;;;;;;;4984629;28;20038;-84
2022/08/27 00:53:57;;;;;;;4.95;2.88;;;;;;;;;;4993233;28;20499;-84
2022/08/27 00:56:29;;;;;;;6.25;2.70;;;;;;;;;;4988211;28;20049;-83
2022/08/27 00:58:55;;;;;;;10.75;2.97;;;;;;;;;;4990398;28;20086;-83
2022/08/27 01:01:28;;;;;;;7.22;2.50;;;;;;;;;;4986505;28;20033;-84
2022/08/27 01:03:57;;;;;;;5.33;2.90;;;;;;;;;;4993936;28;20042;-84
2022/08/27 01:06:27;;;;;;;6.90;2.95;;;;;;;;;;4988701;28;20302;-84
2022/08/27 01:09:10;;;;;;;8.18;2.75;;;;;;;;;;4996561;28;20049;-84
2022/08/27 01:11:36;;;;;;;4.97;2.90;;;;;;;;;;4970071;28;20077;-84
2022/08/27 01:14:02;;;;;;;10.93;2.72;;;;;;;;;;4983707;28;20026;-84
2022/08/27 01:16:34;;;;;;;5.32;2.63;;;;;;;;;;4984414;28;20019;-83
2022/08/27 01:19:00;;;;;;;5.50;2.85;;;;;;;;;;4988321;28;20167;-85
2022/08/27 01:21:37;;;;;;;5.45;2.95;;;;;;;;;;4979709;28;20039;-84
2022/08/27 01:24:36;;;;;;;5.38;2.90;;;;;;;;;;4969663;28;20052;-84
2022/08/27 01:27:06;;;;;;;6.95;3.03;;;;;;;;;;5007046;28;20042;-84
2022/08/27 01:29:32;;;;;;;7.22;2.75;;;;;;;;;;5006613;28;20037;-84
2022/08/27 01:32:19;;;;;;;9.02;3.13;;;;;;;;;;5002985;28;20606;-84
2022/08/27 01:34:46;;;;;;;7.32;3.05;;;;;;;;;;5006200;28;20018;-84
2022/08/27 01:37:12;;;;;;;5.40;3.15;;;;;;;;;;5004853;28;20107;-84
2022/08/27 01:39:40;;;;;;;5.35;2.97;;;;;;;;;;5000648;28;20073;-84
2022/08/27 01:42:10;;;;;;;6.15;2.60;;;;;;;;;;5002214;28;20030;-84
2022/08/27 01:44:46;;;;;;;7.90;3.20;;;;;;;;;;5003474;28;20108;-84
2022/08/27 01:47:12;;;;;;;6.35;3.40;;;;;;;;;;4999259;28;20416;-83
2022/08/27 01:49:38;;;;;;;8.40;2.78;;;;;;;;;;4999079;28;20033;-84
2022/08/27 01:52:03;;;;;;;10.48;3.25;;;;;;;;;;5007790;28;20036;-84
2022/08/27 01:54:30;;;;;;;7.20;2.63;;;;;;;;;;4990829;28;20038;-84
2022/08/27 01:56:55;;;;;;;6.35;2.53;;;;;;;;;;4998064;28;20034;-83
2022/08/27 01:59:20;;;;;;;5.00;2.97;;;;;;;;;;5004366;28;20042;-84
2022/08/27 02:01:46;;;;;;;10.18;3.65;;;;;;;;;;4991069;28;20084;-84
2022/08/27 02:04:11;;;;;;;7.35;2.90;;;;;;;;;;5003008;28;20060;-83
2022/08/27 02:06:36;;;;;;;9.27;3.30;;;;;;;;;;4978898;28;20041;-84
2022/08/27 02:09:02;;;;;;;7.78;3.38;;;;;;;;;;5005606;28;20726;-84
2022/08/27 02:11:28;;;;;;;6.07;3.15;;;;;;;;;;5005393;28;20037;-83
2022/08/27 02:13:53;;;;;;;11.00;3.65;;;;;;;;;;4989493;28;20030;-84
2022/08/27 02:16:18;;;;;;;4.78;2.85;;;;;;;;;;5007215;28;20657;-84
2022/08/27 02:18:44;;;;;;;5.47;3.13;;;;;;;;;;5009247;28;20034;-83
2022/08/27 02:21:09;;;;;;;8.50;3.08;;;;;;;;;;5006107;28;20042;-83
2022/08/27 02:23:35;;;;;;;7.85;3.42;;;;;;;;;;5005358;28;20587;-83
2022/08/27 02:26:00;;;;;;;5.85;2.70;;;;;;;;;;4992468;28;20072;-84
2022/08/27 02:28:26;;;;;;;4.40;3.20;;;;;;;;;;4973315;28;20045;-84
2022/08/27 02:30:54;;;;;;;5.63;2.90;;;;;;;;;;4967534;28;20038;-83
2022/08/27 02:33:19;;;;;;;11.00;3.55;;;;;;;;;;4985032;28;20026;-84
2022/08/27 02:35:44;;;;;;;5.07;2.92;;;;;;;;;;4983003;28;20045;-84
2022/08/27 02:38:11;;;;;;;6.18;3.72;;;;;;;;;;4985031;28;20447;-84
2022/08/27 02:40:37;;;;;;;5.65;2.97;;;;;;;;;;4980081;28;20508;-84
2022/08/27 02:43:03;;;;;;;7.25;3.25;;;;;;;;;;4984533;28;20085;-83
2022/08/27 02:45:28;;;;;;;5.30;2.97;;;;;;;;;;4978951;28;20138;-83
2022/08/27 02:47:53;;;;;;;5.22;3.22;;;;;;;;;;4975658;28;20034;-83
2022/08/27 02:50:19;;;;;;;9.52;3.58;;;;;;;;;;4983809;28;20030;-83
2022/08/27 02:52:45;;;;;;;7.57;3.47;;;;;;;;;;4965230;28;20034;-83
2022/08/27 02:55:10;;;;;;;6.97;3.47;;;;;;;;;;4983046;28;20126;-83
2022/08/27 02:57:36;;;;;;;7.05;3.28;;;;;;;;;;4982918;28;20043;-84
2022/08/27 03:00:03;;;;;;;9.27;3.10;;;;;;;;;;4965726;28;20122;-83
2022/08/27 03:02:29;;;;;;;6.30;3.72;;;;;;;;;;4977842;28;20034;-84
2022/08/27 03:04:55;;;;;;;9.02;3.30;;;;;;;;;;4988776;28;20040;-83
2022/08/27 03:07:23;;;;;;;8.18;3.67;;;;;;;;;;4967892;28;20026;-83
2022/08/27 03:09:48;;;;;;;9.68;3.80;;;;;;;;;;4983232;28;20034;-84
2022/08/27 03:12:14;;;;;;;10.77;3.78;;;;;;;;;;4984877;28;20527;-83
2022/08/27 03:14:40;;;;;;;8.38;3.92;;;;;;;;;;4978155;28;20038;-83
2022/08/27 03:19:49;;;;;;;;;;;;;;;;;;4982714;28;20125;-84
2022/08/27 03:22:14;;;;;;;6.70;3.55;;;;;;;;;;4986414;28;20327;-84
2022/08/27 03:24:40;;;;;;;9.50;3.97;;;;;;;;;;4984201;28;20054;-84
2022/08/27 03:27:08;;;;;;;8.43;3.88;;;;;;;;;;4980687;28;20118;-83
2022/08/27 03:29:37;;;;;;;7.80;3.50;;;;;;;;;;4971855;28;20042;-83
2022/08/27 03:32:05;;;;;;;8.88;3.60;;;;;;;;;;4965779;28;20106;-83
2022/08/27 03:34:32;;;;;;;12.35;4.13;;;;;;;;;;4962867;28;20023;-84
2022/08/27 03:36:59;;;;;;;8.75;3.92;;;;;;;;;;4981662;28;20034;-84
2022/08/27 03:39:25;;;;;;;10.05;3.53;;;;;;;;;;4985588;28;20467;-84
2022/08/27 03:41:50;;;;;;;13.77;3.72;;;;;;;;;;4991185;28;20026;-83
2022/08/27 03:44:16;;;;;;;9.10;3.75;;;;;;;;;;4987473;28;20030;-84
2022/08/27 03:46:42;;;;;;;9.68;4.07;;;;;;;;;;4978124;28;20027;-83
2022/08/27 03:49:07;;;;;;;6.53;3.97;;;;;;;;;;4979578;28;20117;-83
2022/08/27 03:51:32;;;;;;;8.70;4.10;;;;;;;;;;4989167;28;20067;-83
2022/08/27 03:53:58;;;;;;;9.60;3.92;;;;;;;;;;4956711;28;20037;-84
2022/08/27 03:56:24;;;;;;;7.50;4.05;;;;;;;;;;4988704;28;20057;-83
2022/08/27 03:58:49;;;;;;;8.70;3.45;;;;;;;;;;4970976;28;20085;-83
2022/08/27 04:01:16;;;;;;;13.00;4.53;;;;;;;;;;4994065;28;20045;-83
2022/08/27 04:03:41;;;;;;;9.30;4.57;;;;;;;;;;4985592;28;20512;-84
2022/08/27 04:06:07;;;;;;;9.88;4.43;;;;;;;;;;4979456;28;20038;-84
2022/08/27 04:08:32;;;;;;;8.00;4.30;;;;;;;;;;4977133;28;20102;-83
2022/08/27 04:10:58;;;;;;;7.80;4.38;;;;;;;;;;4989606;28;20027;-83
2022/08/27 04:13:23;;;;;;;6.15;3.90;;;;;;;;;;4990814;28;20026;-83
2022/08/27 04:15:50;;;;;;;8.13;4.30;;;;;;;;;;4995211;28;20045;-84
2022/08/27 04:18:16;;;;;;;9.65;3.97;;;;;;;;;;4985660;28;20068;-83
2022/08/27 04:20:45;;;;;;;12.93;4.10;;;;;;;;;;4983331;28;20409;-83
2022/08/27 04:23:12;;;;;;;7.50;4.35;;;;;;;;;;4989293;28;20194;-83
2022/08/27 04:25:39;;;;;;;9.23;4.45;;;;;;;;;;4997802;28;20049;-83
2022/08/27 04:28:05;;;;;;;11.48;4.55;;;;;;;;;;4988962;28;20034;-84
2022/08/27 04:30:31;;;;;;;9.38;4.80;;;;;;;;;;4972548;28;20041;-83
2022/08/27 04:32:57;;;;;;;9.90;4.95;;;;;;;;;;4973432;28;20046;-84
2022/08/27 04:35:23;;;;;;;7.20;4.20;;;;;;;;;;4982731;28;20113;-84
2022/08/27 04:37:48;;;;;;;9.43;4.57;;;;;;;;;;4990084;28;20117;-83
2022/08/27 04:40:14;;;;;;;14.55;4.50;;;;;;;;;;4967543;28;20144;-84
2022/08/27 04:42:39;;;;;;;17.02;4.68;;;;;;;;;;4985292;28;20816;-83
2022/08/27 04:45:05;;;;;;;11.57;5.05;;;;;;;;;;4986508;28;20749;-85
2022/08/27 04:47:31;;;;;;;9.35;4.38;;;;;;;;;;4979753;28;20181;-83
2022/08/27 04:49:56;;;;;;;8.68;4.78;;;;;;;;;;4976744;28;21267;-83
2022/08/27 04:52:22;;;;;;;10.88;4.88;;;;;;;;;;4974625;28;20029;-84
2022/08/27 04:54:47;;;;;;;11.48;5.50;;;;;;;;;;4982823;28;20042;-83
2022/08/27 04:57:12;;;;;;;10.18;4.53;;;;;;;;;;4986841;28;20042;-84
2022/08/27 04:59:38;;;;;;;9.75;4.88;;;;;;;;;;4996266;28;20041;-84
2022/08/27 05:02:08;;;;;;;9.45;4.70;;;;;;;;;;4979112;28;20022;-84
2022/08/27 05:04:36;;;;;;;12.27;5.22;;;;;;;;;;4992959;28;20553;-84
2022/08/27 05:07:02;;;;;;;10.52;4.88;;;;;;;;;;4980589;28;20426;-83
2022/08/27 05:09:28;;;;;;;11.35;5.22;;;;;;;;;;4989568;28;20045;-83
2022/08/27 05:11:55;;;;;;;8.05;4.70;;;;;;;;;;4981207;28;20035;-84
2022/08/27 05:14:21;;;;;;;12.40;5.30;;;;;;;;;;4992573;28;20035;-83
2022/08/27 05:16:47;;;;;;;12.40;4.05;;;;;;;;;;4988343;28;20037;-83
2022/08/27 05:19:13;;;;;;;10.75;5.32;;;;;;;;;;4991591;28;20097;-83
2022/08/27 05:21:44;;;;;;;8.50;4.35;;;;;;;;;;4985497;28;20034;-83
2022/08/27 05:24:10;;;;;;;9.73;4.22;;;;;;;;;;4965936;28;20603;-84
2022/08/27 05:26:35;;;;;;;8.05;4.28;;;;;;;;;;4997916;28;20458;-83
2022/08/27 05:29:03;;;;;;;9.60;4.45;;;;;;;;;;4973934;28;20026;-83
2022/08/27 05:31:28;;;;;;;6.78;4.00;;;;;;;;;;4982254;28;20113;-83
2022/08/27 05:33:55;;;;;;;9.07;4.40;;;;;;;;;;4995686;28;20121;-83
2022/08/27 05:36:25;;;;;;;12.38;4.32;;;;;;;;;;4986388;28;20162;-83
2022/08/27 05:38:51;;;;;;;9.63;4.82;;;;;;;;;;4976035;28;20049;-83
2022/08/27 05:41:29;;;;;;;9.23;4.80;;;;;;;;;;5005912;28;20038;-81
2022/08/27 05:43:58;;;;;;;9.73;4.75;;;;;;;;;;4989239;28;20018;-84
2022/08/27 05:46:25;;;;;;;7.93;4.38;;;;;;;;;;4983422;28;20114;-82
2022/08/27 05:48:51;;;;;;;8.50;4.63;;;;;;;;;;4994688;28;20041;-82
2022/08/27 05:51:21;;;;;;;12.45;5.47;;;;;;;;;;4984883;28;20034;-84
2022/08/27 05:53:47;;;;;;;11.07;4.90;;;;;;;;;;4992384;28;20037;-83
2022/08/27 05:56:20;;;;;;;12.48;5.60;;;;;;;;;;4981946;28;20042;-84
2022/08/27 06:01:33;;;;;;;7.85;4.55;;;;;;;;;;4978632;28;20460;-83
2022/08/27 06:03:59;;;;;;;9.52;4.85;;;;;;;;;;4961420;28;20030;-83
2022/08/27 06:06:24;;;;;;;11.73;4.65;;;;;;;;;;4976342;28;20034;-83
2022/08/27 06:08:51;;;;;;;12.82;5.30;;;;;;;;;;4980844;28;20042;-83
2022/08/27 06:11:20;;;;;;;20.23;5.35;;;;;;;;;;4960263;28;20034;-83
2022/08/27 06:13:47;;;;;;;10.50;5.15;;;;;;;;;;4983121;28;20526;-83
2022/08/27 06:16:15;;;;;;;12.02;5.25;;;;;;;;;;4959524;28;20540;-83
2022/08/27 06:18:44;;;;;;;10.85;5.50;;;;;;;;;;4983493;28;20041;-83
2022/08/27 06:21:10;;;;;;;12.90;5.80;;;;;;;;;;4982179;28;20058;-83
2022/08/27 06:23:36;;;;;;;8.40;4.97;;;;;;;;;;4983763;28;20042;-82
2022/08/27 06:26:06;;;;;;;13.07;5.63;;;;;;;;;;4989486;28;20043;-83
2022/08/27 06:28:32;;;;;;;10.65;5.38;;;;;;;;;;4979113;28;20404;-83
2022/08/27 06:31:12;;;;;;;11.75;5.18;;;;;;;;;;4990642;28;20093;-83
2022/08/27 06:33:38;;;;;;;12.27;5.30;;;;;;;;;;4972824;28;20038;-84
2022/08/27 06:36:07;;;;;;;13.10;5.00;;;;;;;;;;4973253;28;20039;-82
2022/08/27 06:38:33;;;;;;;11.15;5.13;;;;;;;;;;4956162;28;20031;-83
2022/08/27 06:40:58;;;;;;;11.65;5.25;;;;;;;;;;4974256;28;20023;-83
2022/08/27 06:43:25;;;;;;;10.05;4.10;;;;;;;;;;4973067;28;20037;-82
2022/08/27 06:45:51;;;;;;;8.23;4.50;;;;;;;;;;4977626;28;20077;-83
2022/08/27 06:48:17;;;;;;;12.30;4.68;;;;;;;;;;4955792;28;20042;-83
2022/08/27 06:50:43;;;;;;;13.20;4.25;;;;;;;;;;4976981;28;20035;-82
2022/08/27 06:53:08;;;;;;;8.90;4.45;;;;;;;;;;4979509;28;20068;-83
2022/08/27 06:56:00;;;;;;;6.57;4.40;;;;;;;;;;4960347;28;20030;-83
2022/08/27 06:58:25;;;;;;;8.00;3.65;;;;;;;;;;4961103;28;20672;-83
2022/08/27 07:00:51;;;;;;;6.03;3.55;;;;;;;;;;4965149;28;20069;-83
2022/08/27 07:03:16;;;;;;;10.32;3.67;;;;;;;;;;4983796;28;20038;-82
2022/08/27 07:05:42;;;;;;;7.88;3.45;;;;;;;;;;4968928;28;20046;-81
2022/08/27 07:08:08;;;;;;;9.57;3.70;;;;;;;;;;4986588;28;20510;-81
2022/08/27 07:10:37;;;;;;;6.43;2.97;;;;;;;;;;4978889;28;20093;-81
2022/08/27 07:13:03;;;;;;;7.30;2.63;;;;;;;;;;4987711;28;20043;-82
2022/08/27 07:15:29;;;;;;;4.80;2.53;;;;;;;;;;4979723;28;20053;-82
2022/08/27 07:17:54;;;;;;;5.93;2.70;;;;;;;;;;4960604;28;20039;-82
2022/08/27 07:20:20;;;;;;;6.93;3.30;;;;;;;;;;4976035;28;20038;-82
2022/08/27 07:22:46;;;;;;;8.02;3.63;;;;;;;;;;4963890;28;20034;-83
2022/08/27 07:25:18;;;;;;;4.35;2.50;;;;;;;;;;4958826;28;20054;-83
2022/08/27 07:27:43;;;;;;;5.75;3.25;;;;;;;;;;4959818;28;20097;-81
2022/08/27 07:30:14;;;;;;;7.57;2.70;;;;;;;;;;4977905;28;20042;-83
2022/08/27 07:32:44;;;;;;;4.85;2.88;;;;;;;;;;4979810;28;20045;-84
2022/08/27 07:35:10;;;;;;;8.57;2.65;;;;;;;;;;4972860;28;20042;-83
2022/08/27 07:37:37;;;;;;;6.18;3.22;;;;;;;;;;4978775;28;20037;-83
2022/08/27 07:40:04;;;;;;;4.47;2.63;;;;;;;;;;4968987;28;20053;-83
2022/08/27 07:45:14;;;;;;;5.72;2.50;;;;;;;;;;4979798;28;20046;-83
2022/08/27 07:47:39;;;;;;;6.07;2.55;;;;;;;;;;4982110;28;20027;-84
2022/08/27 07:50:05;;;;;;;4.82;2.53;;;;;;;;;;4978669;28;20034;-85
2022/08/27 07:52:30;;;;;;;5.35;2.05;;;;;;;;;;4985845;28;20017;-82
2022/08/27 07:54:56;;;;;;;2.85;2.13;;;;;;;;;;4980497;28;20101;-82
2022/08/27 07:57:21;;;;;;;6.38;2.83;;;;;;;;;;4979799;28;20042;-83
2022/08/27 07:59:47;;;;;;;7.07;2.42;;;;;;;;;;4983150;28;20033;-82
2022/08/27 08:02:14;;;;;;;4.32;1.95;;;;;;;;;;4984750;28;21397;-82
2022/08/27 08:04:39;;;;;;;8.52;2.13;;;;;;;;;;4980492;28;20041;-83
2022/08/27 08:07:04;;;;;;;4.50;2.00;;;;;;;;;;4978214;28;20034;-83
2022/08/27 08:09:31;;;;;;;5.00;1.90;;;;;;;;;;4973993;28;20046;-82
2022/08/27 08:11:56;;;;;;;4.38;1.52;;;;;;;;;;4958391;28;20034;-82
2022/08/27 08:14:22;;;;;;;4.60;1.65;;;;;;;;;;4958309;28;20049;-82
2022/08/27 08:16:47;;;;;;;2.13;1.58;;;;;;;;;;4959333;28;20050;-82
2022/08/27 08:19:12;;;;;;;3.85;1.40;;;;;;;;;;4973875;28;20038;-82
2022/08/27 08:21:38;;;;;;;5.75;1.90;;;;;;;;;;4962549;28;20045;-81
2022/08/27 08:24:04;;;;;;;4.63;1.73;;;;;;;;;;4956803;28;20038;-82
2022/08/27 08:26:29;;;;;;;3.92;1.70;;;;;;;;;;4980089;28;20594;-81
2022/08/27 08:28:55;;;;;;;2.80;1.30;;;;;;;;;;4995606;28;20562;-81
2022/08/27 08:31:22;;;;;;;2.17;1.20;;;;;;;;;;4977024;28;20068;-81
2022/08/27 08:33:48;;;;;;;4.93;1.30;;;;;;;;;;5002680;28;20057;-81
2022/08/27 08:36:15;;;;;;;9.48;1.52;;;;;;;;;;4998767;28;20065;-82
2022/08/27 08:38:42;;;;;;;9.70;1.42;;;;;;;;;;4994014;28;20117;-83
2022/08/27 08:41:25;;;;;;;4.13;1.40;;;;;;;;;;4982823;28;20784;-83
2022/08/27 08:43:50;;;;;;;6.80;1.42;;;;;;;;;;4999838;28;20586;-83
2022/08/27 08:46:43;;;;;;;6.65;1.77;;;;;;;;;;5003710;28;20112;-83
2022/08/27 08:49:24;;;;;;;3.58;1.20;;;;;;;;;;4993852;28;20033;-84
2022/08/27 08:51:54;;;;;;;4.82;1.25;;;;;;;;;;4999328;28;20034;-82
2022/08/27 08:54:23;;;;;;;2.65;1.20;;;;;;;;;;4995469;28;20896;-82
2022/08/27 08:57:00;;;;;;;2.17;1.70;;;;;;;;;;4998979;28;20030;-82
2022/08/27 08:59:33;;;;;;;6.43;1.80;;;;;;;;;;5000762;28;20046;-83
2022/08/27 09:01:59;;;;;;;3.95;1.40;;;;;;;;;;4999126;28;20037;-82
2022/08/27 09:04:28;;;;;;;2.42;1.30;;;;;;;;;;5001581;28;20021;-81
2022/08/27 09:07:02;;;;;;;2.65;1.40;;;;;;;;;;4994112;28;20415;-83
2022/08/27 09:10:16;;;;;;;6.18;1.63;;;;;;;;;;5016305;28;20072;-82
2022/08/27 09:12:42;;;;;;;2.78;1.85;;;;;;;;;;4954268;28;20126;-81
2022/08/27 09:15:17;;;;;;;2.42;1.50;;;;;;;;;;4939833;28;20122;-83
2022/08/27 09:17:44;;;;;;;3.42;1.70;;;;;;;;;;4978766;28;20030;-81
2022/08/27 09:20:11;;;;;;;4.50;1.75;;;;;;;;;;5007854;28;20059;-81
2022/08/27 09:22:48;;;;;;;4.25;1.45;;;;;;;;;;5000099;28;20027;-81
2022/08/27 09:25:27;;;;;;;3.92;1.95;;;;;;;;;;5006557;28;20065;-80
2022/08/27 09:27:56;;;;;;;4.13;1.98;;;;;;;;;;5010726;28;20034;-80
2022/08/27 09:30:28;;;;;;;2.97;1.90;;;;;;;;;;5005789;28;20038;-81
2022/08/27 09:33:05;;;;;;;4.97;2.00;;;;;;;;;;4990457;28;20137;-79
2022/08/27 09:35:45;;;;;;;4.88;1.73;;;;;;;;;;4990877;28;20174;-82
2022/08/27 09:38:29;;;;;;;3.10;1.80;;;;;;;;;;4991337;28;20085;-81
2022/08/27 09:40:59;;;;;;;5.93;2.15;;;;;;;;;;4996677;28;20515;-81
2022/08/27 09:43:30;;;;;;;6.18;1.90;;;;;;;;;;4992291;28;20030;-80
2022/08/27 09:46:04;;;;;;;8.82;2.00;;;;;;;;;;4990265;28;20523;-82
2022/08/27 09:48:46;;;;;;;5.28;1.80;;;;;;;;;;4990798;28;20040;-80
2022/08/27 09:51:16;;;;;;;3.72;1.77;;;;;;;;;;4988438;28;20049;-82
2022/08/27 09:54:00;;;;;;;4.72;1.58;;;;;;;;;;4984215;28;20089;-82
2022/08/27 09:56:35;;;;;;;4.60;1.70;;;;;;;;;;5009261;28;20038;-83
2022/08/27 09:59:29;;;;;;;4.00;1.80;;;;;;;;;;5007289;28;20025;-81
2022/08/27 10:01:54;;;;;;;3.85;1.77;;;;;;;;;;5007121;28;20610;-82
2022/08/27 10:04:57;;;;;;;3.33;1.60;;;;;;;;;;5011722;28;20049;-82
2022/08/27 10:07:39;;;;;;;2.90;1.60;;;;;;;;;;5014659;28;20025;-83
2022/08/27 10:10:19;;;;;;;3.85;1.75;;;;;;;;;;5029400;28;20038;-82
2022/08/27 10:13:05;;;;;;;4.68;1.80;;;;;;;;;;5025350;28;20049;-82
2022/08/27 10:15:44;;;;;;;4.18;1.70;;;;;;;;;;5009902;28;20049;-82
2022/08/27 10:18:30;;;;;;;3.67;2.22;;;;;;;;;;5016865;28;20073;-80
2022/08/27 10:21:22;;;;;;;12.90;1.90;;;;;;;;;;5012618;28;20073;-83
2022/08/27 10:24:16;;;;;;;2.78;1.77;;;;;;;;;;4983981;28;20050;-81
2022/08/27 10:26:59;;;;;;;4.82;2.20;;;;;;;;;;4989278;28;20094;-83
2022/08/27 10:29:34;;;;;;;;;;;;;;;;;;4980439;28;20041;-82
2022/08/27 10:32:06;;;;;;;4.03;1.98;;;;;;;;;;4980071;28;19973;-82
2022/08/27 10:34:50;;;;;;;4.93;1.80;;;;;;;;;;4986051;28;20518;-81
2022/08/27 10:37:21;;;;;;;6.07;1.95;;;;;;;;;;4990107;28;20038;-81
2022/08/27 10:40:46;;;;;;;4.00;1.95;;;;;;;;;;4985204;28;20740;-82
2022/08/27 10:43:20;;;;;;;2.97;2.25;;;;;;;;;;4928074;29;20050;-81
2022/08/27 10:45:50;;;;;;;6.75;3.17;;;;;;;;;;4909184;29;20214;-83
2022/08/27 10:48:41;;;;;;;6.30;2.30;;;;;;;;;;4963602;28;20610;-82
2022/08/27 10:51:18;;;;;;;4.47;2.50;;;;;;;;;;4975448;28;20046;-82
2022/08/27 10:53:43;;;;;;;4.15;2.55;;;;;;;;;;4981256;28;20046;-81
2022/08/27 10:56:14;;;;;;;5.15;3.10;;;;;;;;;;4977736;28;20046;-81
2022/08/27 10:58:49;;;;;;;6.32;2.88;;;;;;;;;;4983555;28;20031;-83
2022/08/27 11:01:26;;;;;;;4.60;3.00;;;;;;;;;;4958313;28;20057;-83
2022/08/27 11:04:01;;;;;;;6.45;3.72;;;;;;;;;;4981195;28;20815;-83
2022/08/27 11:06:32;;;;;;;3.63;2.80;;;;;;;;;;4961601;28;20788;-81
2022/08/27 11:09:09;;;;;;;5.10;2.83;;;;;;;;;;4979027;28;20050;-82
2022/08/27 11:11:37;;;;;;;6.43;2.83;;;;;;;;;;4979330;28;20589;-80
2022/08/27 11:14:08;;;;;;;4.70;2.72;;;;;;;;;;4962018;28;20030;-80
2022/08/27 11:16:43;;;;;;;2.47;1.98;;;;;;;;;;4978084;28;20061;-83
2022/08/27 11:19:09;;;;;;;4.95;2.38;;;;;;;;;;4961807;28;20034;-81
2022/08/27 11:22:01;;;;;;;2.97;2.20;;;;;;;;;;4965680;28;20101;-82
2022/08/27 11:24:46;;;;;;;2.90;2.30;;;;;;;;;;4931387;28;20046;-82
2022/08/27 11:27:16;;;;;;;6.13;2.40;;;;;;;;;;5001478;28;20064;-82
2022/08/27 11:29:52;;;;;;;5.07;2.47;;;;;;;;;;4992088;28;20122;-82
2022/08/27 11:32:35;;;;;;;5.45;2.40;;;;;;;;;;4981169;28;20169;-82
2022/08/27 11:35:25;;;;;;;5.20;2.50;;;;;;;;;;5001792;28;20029;-81
2022/08/27 11:38:18;;;;;;;4.43;2.55;;;;;;;;;;4991114;28;20522;-80
2022/08/27 11:41:08;;;;;;;4.75;2.53;;;;;;;;;;5004010;28;20026;-82
2022/08/27 11:43:35;;;;;;;5.57;2.67;;;;;;;;;;5002533;28;20073;-80
2022/08/27 11:46:05;;;;;;;4.88;2.00;;;;;;;;;;4990951;28;20128;-81
2022/08/27 11:48:35;;;;;;;3.10;1.90;;;;;;;;;;4979365;28;20081;-81
2022/08/27 11:51:09;;;;;;;4.25;1.92;;;;;;;;;;4998176;28;20084;-80
2022/08/27 11:53:38;;;;;;;2.60;2.10;;;;;;;;;;5006492;28;20055;-80
2022/08/27 11:56:14;;;;;;;2.40;1.90;;;;;;;;;;4999910;28;20030;-80
2022/08/27 11:58:41;;;;;;;4.40;2.13;;;;;;;;;;4998517;28;20029;-80
2022/08/27 12:01:25;;;;;;;4.68;2.20;;;;;;;;;;4984134;28;20034;-81
2022/08/27 12:04:02;;;;;;;4.05;2.22;;;;;;;;;;4999429;28;20045;-80
2022/08/27 12:06:38;;;;;;;4.65;2.10;;;;;;;;;;4996790;28;20133;-81
2022/08/27 12:09:13;;;;;;;4.65;2.53;;;;;;;;;;4997881;28;20511;-81
2022/08/27 12:12:28;;;;;;;3.30;2.20;;;;;;;;;;4982290;28;20042;-80
2022/08/27 12:15:21;;;;;;;3.42;2.25;;;;;;;;;;4962984;28;20072;-82
2022/08/27 12:18:13;;;;;;;5.70;2.30;;;;;;;;;;4977669;28;20038;-81
2022/08/27 12:20:56;;;;;;;7.28;2.25;;;;;;;;;;4996250;28;20133;-82
2022/08/27 12:23:45;;;;;;;5.05;2.58;;;;;;;;;;4998304;28;20523;-82
2022/08/27 12:26:25;;;;;;;5.97;2.90;;;;;;;;;;4991095;28;20682;-80
2022/08/27 12:29:28;;;;;;;6.80;2.53;;;;;;;;;;4986756;28;20033;-82
2022/08/27 12:32:05;;;;;;;3.88;2.50;;;;;;;;;;4980972;28;20026;-82
2022/08/27 12:34:41;;;;;;;5.03;2.50;;;;;;;;;;4968348;28;20024;-82
2022/08/27 12:37:07;;;;;;;6.38;2.70;;;;;;;;;;4974999;28;20097;-81
2022/08/27 12:39:38;;;;;;;3.97;2.30;;;;;;;;;;4956355;28;20065;-82
2022/08/27 12:42:20;;;;;;;2.58;2.00;;;;;;;;;;4976375;28;20496;-82
2022/08/27 12:44:46;;;;;;;4.65;2.30;;;;;;;;;;4976427;28;21603;-83
2022/08/27 12:47:14;;;;;;;2.20;1.92;;;;;;;;;;4978443;28;20060;-82
2022/08/27 12:49:45;;;;;;;6.05;2.10;;;;;;;;;;4977955;28;20057;-81
2022/08/27 12:52:39;;;;;;;4.68;1.48;;;;;;;;;;4977037;28;20026;-82
2022/08/27 12:55:19;;;;;;;;;;;;;;;;;;4961069;28;20043;-82
2022/08/27 12:57:55;;;;;;;4.03;1.80;;;;;;;;;;4977405;28;20312;-82
2022/08/27 13:00:22;;;;;;;6.32;1.67;;;;;;;;;;4975720;28;20030;-81
2022/08/27 13:03:00;;;;;;;2.70;1.63;;;;;;;;;;4975657;28;20081;-81
2022/08/27 13:05:25;;;;;;;3.45;1.50;;;;;;;;;;4973831;28;20449;-82
2022/08/27 13:07:52;;;;;;;5.10;1.98;;;;;;;;;;4982301;28;20026;-82
2022/08/27 13:10:28;;;;;;;1.98;1.50;;;;;;;;;;4970246;28;20571;-82
2022/08/27 13:13:04;;;;;;;2.67;1.58;;;;;;;;;;4962169;28;20038;-81
2022/08/27 13:15:30;;;;;;;1.70;1.45;;;;;;;;;;4975598;28;20030;-81
2022/08/27 13:17:55;;;;;;;3.97;1.42;;;;;;;;;;4979943;28;20038;-82
2022/08/27 13:20:25;;;;;;;3.20;2.47;;;;;;;;;;4962297;28;20038;-81
2022/08/27 13:22:52;;;;;;;3.60;1.70;;;;;;;;;;4965348;28;20029;-81
2022/08/27 13:25:32;;;;;;;1.70;1.50;;;;;;;;;;4969580;28;20112;-81
2022/08/27 13:28:13;;;;;;;4.05;1.90;;;;;;;;;;4986267;28;20105;-81
2022/08/27 13:30:42;;;;;;;7.88;3.05;;;;;;;;;;4992018;28;20540;-81
2022/08/27 13:33:15;;;;;;;4.07;1.80;;;;;;;;;;5007406;28;20826;-85
2022/08/27 13:35:42;;;;;;;6.13;1.77;;;;;;;;;;5003249;28;20530;-81
2022/08/27 13:38:08;;;;;;;5.00;2.05;;;;;;;;;;4983581;28;20110;-81
2022/08/27 13:40:36;;;;;;;2.20;1.70;;;;;;;;;;4988145;28;20026;-81
2022/08/27 13:43:09;;;;;;;11.93;1.90;;;;;;;;;;5007008;28;20040;-81
2022/08/27 13:45:37;;;;;;;3.88;2.28;;;;;;;;;;4983391;28;20150;-80
2022/08/27 13:48:04;;;;;;;3.40;1.90;;;;;;;;;;4983642;28;20049;-80
2022/08/27 13:50:31;;;;;;;3.17;2.15;;;;;;;;;;5001582;28;20041;-81
2022/08/27 13:56:03;;;;;;;3.22;1.60;;;;;;;;;;4999395;28;20484;-82
2022/08/27 13:58:31;;;;;;;3.45;1.80;;;;;;;;;;5006617;28;20037;-82
2022/08/27 14:01:09;;;;;;;3.25;1.80;;;;;;;;;;5000491;28;20042;-81
2022/08/27 14:03:44;;;;;;;2.88;2.13;;;;;;;;;;4978083;28;20065;-81
2022/08/27 14:06:10;;;;;;;5.03;2.45;;;;;;;;;;4984308;28;20045;-81
2022/08/27 14:08:35;;;;;;;3.92;1.92;;;;;;;;;;4977141;28;20040;-81
2022/08/27 14:11:05;;;;;;;5.80;2.10;;;;;;;;;;5000010;28;20026;-80
2022/08/27 14:13:41;;;;;;;2.80;2.33;;;;;;;;;;4981256;28;20507;-81
2022/08/27 14:16:30;;;;;;;5.57;2.55;;;;;;;;;;4983197;28;20050;-81
2022/08/27 14:19:08;;;;;;;4.53;2.67;;;;;;;;;;5000194;28;20092;-81
2022/08/27 14:21:35;;;;;;;4.10;2.30;;;;;;;;;;4999629;28;20080;-82
2022/08/27 14:24:01;;;;;;;3.97;2.70;;;;;;;;;;5003469;28;20038;-81
2022/08/27 14:26:26;;;;;;;4.22;2.50;;;;;;;;;;4984068;28;20074;-82
2022/08/27 14:28:53;;;;;;;4.18;2.75;;;;;;;;;;4984180;28;20026;-83
2022/08/27 14:31:20;;;;;;;4.18;2.70;;;;;;;;;;4973174;28;20124;-83
2022/08/27 14:33:46;;;;;;;4.20;2.80;;;;;;;;;;5005639;28;20109;-83
2022/08/27 14:36:11;;;;;;;6.85;2.70;;;;;;;;;;5007121;28;20034;-83
2022/08/27 14:38:40;;;;;;;9.00;3.10;;;;;;;;;;5005777;28;20046;-82
2022/08/27 14:41:06;;;;;;;4.72;3.25;;;;;;;;;;4976697;28;20041;-82
2022/08/27 14:43:33;;;;;;;3.90;3.20;;;;;;;;;;4982375;28;20026;-82
2022/08/27 14:45:59;;;;;;;4.60;2.97;;;;;;;;;;4984765;28;20508;-82
2022/08/27 14:48:29;;;;;;;4.78;3.13;;;;;;;;;;4980634;28;20081;-82
2022/08/27 14:50:55;;;;;;;3.65;3.13;;;;;;;;;;4994167;28;20109;-81
2022/08/27 14:53:21;;;;;;;6.68;3.55;;;;;;;;;;4967900;28;20030;-82
2022/08/27 14:55:46;;;;;;;5.00;3.42;;;;;;;;;;4989266;28;20073;-83
2022/08/27 14:58:13;;;;;;;3.50;3.00;;;;;;;;;;4966771;28;20038;-85
2022/08/27 15:00:39;;;;;;;5.43;3.20;;;;;;;;;;4985147;28;20085;-83
2022/08/27 15:03:06;;;;;;;5.75;3.25;;;;;;;;;;4983286;28;20046;-83
2022/08/27 15:05:32;;;;;;;5.05;3.38;;;;;;;;;;4966813;28;20111;-83
2022/08/27 15:07:57;;;;;;;3.95;3.15;;;;;;;;;;4984900;28;20025;-83
2022/08/27 15:10:23;;;;;;;4.95;3.55;;;;;;;;;;4967078;28;20018;-82
2022/08/27 15:12:49;;;;;;;7.28;3.58;;;;;;;;;;4989824;28;20035;-86